createdAt,value
2022-11-09T00:00:45.549Z,11.93
2022-11-09T00:03:13.314Z,11.92
2022-11-09T00:05:41.232Z,11.95
2022-11-09T00:08:12.421Z,11.95
2022-11-09T00:10:40.053Z,11.96
2022-11-09T00:13:07.682Z,11.96
2022-11-09T00:15:35.378Z,11.92
2022-11-09T00:18:03.678Z,11.87
2022-11-09T00:20:31.367Z,11.93
2022-11-09T00:22:59.102Z,11.88
2022-11-09T00:25:28.109Z,11.89
2022-11-09T00:27:55.799Z,11.95
2022-11-09T00:30:26.853Z,11.90
2022-11-09T00:32:54.544Z,11.91
2022-11-09T00:35:22.218Z,11.89
2022-11-09T00:37:50.000Z,11.87
2022-11-09T00:40:17.999Z,11.88
2022-11-09T00:42:47.698Z,11.88
2022-11-09T00:45:17.038Z,11.86
2022-11-09T00:47:45.712Z,11.84
2022-11-09T00:50:13.439Z,11.84
2022-11-09T00:52:41.193Z,11.81
2022-11-09T00:55:09.668Z,11.81
2022-11-09T00:57:37.336Z,11.91
2022-11-09T01:00:07.713Z,12.00
2022-11-09T01:02:35.351Z,11.97
2022-11-09T01:05:03.180Z,11.90
2022-11-09T01:07:30.961Z,11.91
2022-11-09T01:09:58.842Z,11.96
2022-11-09T01:12:26.569Z,11.99
2022-11-09T01:14:54.312Z,12.00
2022-11-09T01:17:23.465Z,12.03
2022-11-09T01:19:51.719Z,12.03
2022-11-09T01:22:19.978Z,12.05
2022-11-09T01:24:48.720Z,12.05
2022-11-09T01:27:17.579Z,11.93
2022-11-09T01:29:45.844Z,11.92
2022-11-09T01:32:13.607Z,11.91
2022-11-09T01:34:42.638Z,11.92
2022-11-09T01:37:10.282Z,11.92
2022-11-09T01:39:38.129Z,11.93
2022-11-09T01:42:06.210Z,11.93
2022-11-09T01:44:36.517Z,11.91
2022-11-09T01:47:08.278Z,11.88
2022-11-09T01:49:42.066Z,11.91
2022-11-09T01:52:18.596Z,11.92
2022-11-09T01:54:49.288Z,11.92
2022-11-09T01:57:22.274Z,12.02
2022-11-09T01:59:55.202Z,12.03
2022-11-09T02:02:23.648Z,12.01
2022-11-09T02:04:56.623Z,12.05
2022-11-09T02:07:26.437Z,12.02
2022-11-09T02:10:01.832Z,12.10
2022-11-09T02:12:32.444Z,12.14
2022-11-09T02:15:03.299Z,12.16
2022-11-09T02:17:32.627Z,12.17
2022-11-09T02:20:00.701Z,12.31
2022-11-09T02:22:30.997Z,12.33
2022-11-09T02:24:59.177Z,12.26
2022-11-09T02:27:27.315Z,12.38
2022-11-09T02:29:58.078Z,12.39
2022-11-09T02:32:29.911Z,12.44
2022-11-09T02:34:59.516Z,12.46
2022-11-09T02:37:29.324Z,12.44
2022-11-09T02:40:01.206Z,12.54
2022-11-09T02:42:29.296Z,12.44
2022-11-09T02:45:00.334Z,12.46
2022-11-09T02:47:28.098Z,12.43
2022-11-09T02:49:58.005Z,12.40
2022-11-09T02:52:27.248Z,12.35
2022-11-09T02:54:54.921Z,12.42
2022-11-09T02:57:23.957Z,12.39
2022-11-09T02:59:52.445Z,12.39
2022-11-09T03:02:21.381Z,12.38
2022-11-09T03:04:49.025Z,12.47
2022-11-09T03:07:17.077Z,12.35
2022-11-09T03:09:46.009Z,12.43
2022-11-09T03:12:31.686Z,12.46
2022-11-09T03:15:13.832Z,12.42
2022-11-09T03:17:45.472Z,12.29
2022-11-09T03:20:13.915Z,12.23
2022-11-09T03:22:43.424Z,12.15
2022-11-09T03:25:11.187Z,12.16
2022-11-09T03:27:39.730Z,12.14
2022-11-09T03:30:10.329Z,12.10
2022-11-09T03:32:39.457Z,12.13
2022-11-09T03:35:08.703Z,12.13
2022-11-09T03:37:36.906Z,12.23
2022-11-09T03:40:06.220Z,12.07
2022-11-09T03:42:34.065Z,11.98
2022-11-09T03:45:01.817Z,11.96
2022-11-09T03:47:29.483Z,11.98
2022-11-09T03:49:58.483Z,12.02
2022-11-09T03:52:26.157Z,11.91
2022-11-09T03:54:53.831Z,11.87
2022-11-09T03:57:21.512Z,11.81
2022-11-09T03:59:49.193Z,11.85
2022-11-09T04:02:16.853Z,11.83
2022-11-09T04:04:44.445Z,11.85
2022-11-09T04:07:13.765Z,11.76
2022-11-09T04:09:41.687Z,11.78
2022-11-09T04:12:09.356Z,11.85
2022-11-09T04:14:37.480Z,11.79
2022-11-09T04:17:05.456Z,11.79
2022-11-09T04:19:33.098Z,11.92
2022-11-09T04:22:00.909Z,11.94
2022-11-09T04:24:29.934Z,11.84
2022-11-09T04:26:57.681Z,11.80
2022-11-09T04:29:25.391Z,11.86
2022-11-09T04:31:53.502Z,11.80
2022-11-09T04:34:21.140Z,11.76
2022-11-09T04:36:48.826Z,11.86
2022-11-09T04:39:16.757Z,11.78
2022-11-09T04:41:45.786Z,11.90
2022-11-09T04:44:13.401Z,11.82
2022-11-09T04:46:41.058Z,12.03
2022-11-09T04:49:09.329Z,12.04
2022-11-09T04:51:37.224Z,12.09
2022-11-09T04:54:05.041Z,11.93
2022-11-09T04:56:32.724Z,11.86
2022-11-09T04:59:01.790Z,12.03
2022-11-09T05:01:29.554Z,11.95
2022-11-09T05:03:57.559Z,12.05
2022-11-09T05:06:34.099Z,12.05
2022-11-09T05:09:04.145Z,11.98
2022-11-09T05:11:32.488Z,12.02
2022-11-09T05:14:02.092Z,12.20
2022-11-09T05:16:31.726Z,12.11
2022-11-09T05:18:59.903Z,12.13
2022-11-09T05:21:27.666Z,12.03
2022-11-09T05:24:00.620Z,12.20
2022-11-09T05:26:29.821Z,12.04
2022-11-09T05:28:59.092Z,12.12
2022-11-09T05:31:29.339Z,12.03
2022-11-09T05:33:57.979Z,12.00
2022-11-09T05:36:26.449Z,12.24
2022-11-09T05:38:54.320Z,12.32
2022-11-09T05:41:22.294Z,12.03
2022-11-09T05:43:50.569Z,12.19
2022-11-09T05:46:19.361Z,12.06
2022-11-09T05:48:48.548Z,12.13
2022-11-09T05:51:16.486Z,12.02
2022-11-09T05:53:46.683Z,12.04
2022-11-09T05:56:15.756Z,12.08
2022-11-09T05:58:43.712Z,12.10
2022-11-09T06:01:13.965Z,12.16
2022-11-09T06:03:44.418Z,12.03
2022-11-09T06:06:15.722Z,11.89
2022-11-09T06:08:43.849Z,11.86
2022-11-09T06:11:16.781Z,11.95
2022-11-09T06:13:49.460Z,11.88
2022-11-09T06:16:17.592Z,12.07
2022-11-09T06:18:45.291Z,12.14
2022-11-09T06:21:14.348Z,11.85
2022-11-09T06:23:41.982Z,11.93
2022-11-09T06:26:11.686Z,12.16
2022-11-09T06:28:40.248Z,11.86
2022-11-09T06:31:09.510Z,11.93
2022-11-09T06:33:37.916Z,12.10
2022-11-09T06:36:06.525Z,11.96
2022-11-09T06:38:35.632Z,12.08
2022-11-09T06:41:03.424Z,12.20
2022-11-09T06:43:31.145Z,12.03
2022-11-09T06:46:01.178Z,12.00
2022-11-09T06:48:29.116Z,12.03
2022-11-09T06:51:01.343Z,12.11
2022-11-09T06:53:30.713Z,12.13
2022-11-09T06:56:00.562Z,12.00
2022-11-09T06:58:29.890Z,12.15
2022-11-09T07:00:58.324Z,12.14
2022-11-09T07:03:26.660Z,12.26
2022-11-09T07:05:54.381Z,11.96
2022-11-09T07:08:22.605Z,12.11
2022-11-09T07:10:50.266Z,12.06
2022-11-09T07:13:19.710Z,12.03
2022-11-09T07:15:54.379Z,12.12
2022-11-09T07:18:22.219Z,12.03
2022-11-09T07:20:49.896Z,12.00
2022-11-09T07:23:18.368Z,12.06
2022-11-09T07:25:46.187Z,12.09
2022-11-09T07:28:14.150Z,12.33
2022-11-09T07:30:43.156Z,12.10
2022-11-09T07:33:17.998Z,12.07
2022-11-09T07:35:46.394Z,12.10
2022-11-09T07:38:15.857Z,12.07
2022-11-09T07:40:44.003Z,12.06
2022-11-09T07:43:13.012Z,12.11
2022-11-09T07:45:43.077Z,12.06
2022-11-09T07:48:12.695Z,12.09
2022-11-09T07:50:41.632Z,12.09
2022-11-09T07:53:11.808Z,12.04
2022-11-09T07:55:40.057Z,12.04
2022-11-09T07:58:09.392Z,12.06
2022-11-09T08:00:39.237Z,12.13
2022-11-09T08:03:09.126Z,12.13
2022-11-09T08:05:37.944Z,12.09
2022-11-09T08:08:08.427Z,12.18
2022-11-09T08:10:37.191Z,12.07
2022-11-09T08:13:07.566Z,12.21
2022-11-09T08:15:36.777Z,12.12
2022-11-09T08:18:07.330Z,12.17
2022-11-09T08:20:36.634Z,12.10
2022-11-09T08:23:05.176Z,12.08
2022-11-09T08:25:33.346Z,12.20
2022-11-09T08:28:01.152Z,12.17
2022-11-09T08:30:28.947Z,12.10
2022-11-09T08:32:56.922Z,12.18
2022-11-09T08:35:25.597Z,12.16
2022-11-09T08:37:55.449Z,12.21
2022-11-09T08:40:25.672Z,12.25
2022-11-09T08:42:53.896Z,12.28
2022-11-09T08:45:22.113Z,12.30
2022-11-09T08:47:49.879Z,12.30
2022-11-09T08:50:17.813Z,12.72
2022-11-09T08:52:45.490Z,12.58
2022-11-09T08:55:14.842Z,12.52
2022-11-09T08:57:42.546Z,12.47
2022-11-09T09:00:11.045Z,12.52
2022-11-09T09:02:38.710Z,12.35
2022-11-09T09:05:07.838Z,12.39
2022-11-09T09:07:35.569Z,12.42
2022-11-09T09:10:04.519Z,12.78
2022-11-09T09:12:33.651Z,12.72
2022-11-09T09:15:01.529Z,12.62
2022-11-09T09:17:29.361Z,12.66
2022-11-09T09:19:57.047Z,12.62
2022-11-09T09:22:24.806Z,12.74
2022-11-09T09:24:52.533Z,12.74
2022-11-09T09:27:20.225Z,12.87
2022-11-09T09:29:49.275Z,12.71
2022-11-09T09:32:17.173Z,12.76
2022-11-09T09:34:44.842Z,12.78
2022-11-09T09:37:12.565Z,12.81
2022-11-09T09:39:40.351Z,13.00
2022-11-09T09:42:13.640Z,12.92
2022-11-09T09:44:46.285Z,13.10
2022-11-09T09:47:20.989Z,13.18
2022-11-09T09:49:56.398Z,13.22
2022-11-09T09:52:34.670Z,13.26
2022-11-09T09:55:08.602Z,13.52
2022-11-09T09:57:41.883Z,13.56
2022-11-09T10:00:23.722Z,13.73
2022-11-09T10:02:54.125Z,13.84
2022-11-09T10:05:28.188Z,13.76
2022-11-09T10:08:03.804Z,13.99
2022-11-09T10:10:47.349Z,13.89
2022-11-09T10:13:30.971Z,14.10
2022-11-09T10:16:05.837Z,14.14
2022-11-09T10:18:46.515Z,14.11
2022-11-09T10:21:28.651Z,14.06
2022-11-09T10:24:07.719Z,14.31
2022-11-09T10:26:42.632Z,14.22
2022-11-09T10:29:21.323Z,14.24
2022-11-09T10:31:51.363Z,14.34
2022-11-09T10:34:22.792Z,14.53
2022-11-09T10:37:02.937Z,14.41
2022-11-09T10:39:48.290Z,14.52
2022-11-09T10:42:34.455Z,14.81
2022-11-09T10:45:29.543Z,15.04
2022-11-09T10:48:16.298Z,14.95
2022-11-09T10:51:04.820Z,14.73
2022-11-09T10:54:15.884Z,14.73
2022-11-09T10:57:17.603Z,14.53
2022-11-09T11:00:06.271Z,14.38
2022-11-09T11:02:54.375Z,14.60
2022-11-09T11:05:41.102Z,14.55
2022-11-09T11:08:32.989Z,14.51
2022-11-09T11:11:35.116Z,14.69
2022-11-09T11:14:30.520Z,14.90
2022-11-09T11:17:24.263Z,14.92
2022-11-09T11:20:29.773Z,15.00
2022-11-09T11:23:18.534Z,14.96
2022-11-09T11:26:29.116Z,14.83
2022-11-09T11:29:31.774Z,14.66
2022-11-09T11:32:20.097Z,14.77
2022-11-09T11:35:13.461Z,14.73
2022-11-09T11:38:12.470Z,14.68
2022-11-09T11:41:07.952Z,14.80
2022-11-09T11:44:02.841Z,14.71
2022-11-09T11:46:59.835Z,14.64
2022-11-09T11:50:04.349Z,14.59
2022-11-09T11:53:05.881Z,14.57
2022-11-09T11:56:28.110Z,14.63
2022-11-09T11:59:43.326Z,14.68
2022-11-09T12:03:06.048Z,14.78
2022-11-09T12:06:07.461Z,14.85
2022-11-09T12:09:07.027Z,14.87
2022-11-09T12:12:08.309Z,14.84
2022-11-09T12:15:12.953Z,14.74
2022-11-09T12:18:11.927Z,14.76
2022-11-09T12:21:12.669Z,14.79
2022-11-09T12:24:11.438Z,14.74
2022-11-09T12:27:32.169Z,14.91
2022-11-09T12:30:23.814Z,14.92
2022-11-09T12:33:16.704Z,14.97
2022-11-09T12:36:09.477Z,14.96
2022-11-09T12:39:01.126Z,15.05
2022-11-09T12:41:50.705Z,15.02
2022-11-09T12:44:44.444Z,14.98
2022-11-09T12:47:38.771Z,14.99
2022-11-09T12:50:27.287Z,14.88
2022-11-09T12:53:15.051Z,14.80
2022-11-09T12:56:06.769Z,14.83
2022-11-09T12:58:53.344Z,14.94
2022-11-09T13:01:48.833Z,14.85
2022-11-09T13:04:37.600Z,14.87
2022-11-09T13:07:49.486Z,14.84
2022-11-09T13:10:38.205Z,14.81
2022-11-09T13:13:25.750Z,14.81
2022-11-09T13:16:32.357Z,14.82
2022-11-09T13:19:55.295Z,14.85
2022-11-09T13:23:01.677Z,14.94
2022-11-09T13:25:52.815Z,14.84
2022-11-09T13:29:07.189Z,14.88
2022-11-09T13:32:31.279Z,14.92
2022-11-09T13:35:50.640Z,14.75
2022-11-09T13:38:38.228Z,14.74
2022-11-09T13:41:44.697Z,14.70
2022-11-09T13:44:35.751Z,14.71
2022-11-09T13:47:35.687Z,14.65
2022-11-09T13:50:24.312Z,14.60
2022-11-09T13:53:29.640Z,14.63
2022-11-09T13:56:27.896Z,14.60
2022-11-09T13:59:19.104Z,14.60
2022-11-09T14:02:19.147Z,14.59
2022-11-09T14:05:06.524Z,14.56
2022-11-09T14:07:54.516Z,14.57
2022-11-09T14:10:53.181Z,14.55
2022-11-09T14:14:02.097Z,14.58
2022-11-09T14:16:57.547Z,14.58
2022-11-09T14:19:54.412Z,14.53
2022-11-09T14:22:41.653Z,14.53
2022-11-09T14:25:30.847Z,14.62
2022-11-09T14:28:23.130Z,14.60
2022-11-09T14:31:23.298Z,14.46
2022-11-09T14:34:17.289Z,14.38
2022-11-09T14:37:07.454Z,14.46
2022-11-09T14:39:54.401Z,14.40
2022-11-09T14:42:46.017Z,14.33
2022-11-09T14:45:32.984Z,14.42
2022-11-09T14:48:22.594Z,14.32
2022-11-09T14:51:13.418Z,14.34
2022-11-09T14:54:01.683Z,14.40
2022-11-09T14:56:48.876Z,14.29
2022-11-09T14:59:36.876Z,14.26
2022-11-09T15:02:24.969Z,14.20
2022-11-09T15:05:33.844Z,14.26
2022-11-09T15:08:23.160Z,14.23
2022-11-09T15:11:10.281Z,14.13
2022-11-09T15:13:57.310Z,14.00
2022-11-09T15:16:44.645Z,14.15
2022-11-09T15:19:34.318Z,14.05
2022-11-09T15:22:49.198Z,13.96
2022-11-09T15:25:37.277Z,13.89
2022-11-09T15:28:26.471Z,13.86
2022-11-09T15:31:16.272Z,13.89
2022-11-09T15:34:02.964Z,13.91
2022-11-09T15:36:55.487Z,14.10
2022-11-09T15:39:43.617Z,13.94
2022-11-09T15:42:30.214Z,13.89
2022-11-09T15:45:18.650Z,13.80
2022-11-09T15:48:05.054Z,13.70
2022-11-09T15:50:51.708Z,13.64
2022-11-09T15:53:38.337Z,13.58
2022-11-09T15:56:26.057Z,13.67
2022-11-09T15:59:19.068Z,13.72
2022-11-09T16:02:05.264Z,13.76
2022-11-09T16:04:51.724Z,13.76
2022-11-09T16:07:38.681Z,13.68
2022-11-09T16:10:27.174Z,13.68
2022-11-09T16:13:14.894Z,13.54
2022-11-09T16:16:05.628Z,13.44
2022-11-09T16:18:52.404Z,13.37
2022-11-09T16:21:38.914Z,13.34
2022-11-09T16:24:25.310Z,13.26
2022-11-09T16:27:22.223Z,13.17
2022-11-09T16:30:20.270Z,13.22
2022-11-09T16:33:06.704Z,13.17
2022-11-09T16:35:54.256Z,13.15
2022-11-09T16:38:43.202Z,13.18
2022-11-09T16:41:31.572Z,13.12
2022-11-09T16:44:21.437Z,13.08
2022-11-09T16:47:14.170Z,12.99
2022-11-09T16:50:00.380Z,12.98
2022-11-09T16:52:46.904Z,12.97
2022-11-09T16:55:33.203Z,12.93
2022-11-09T16:58:20.260Z,12.92
2022-11-09T17:01:12.430Z,12.81
2022-11-09T17:04:01.077Z,12.82
2022-11-09T17:06:47.833Z,12.84
2022-11-09T17:09:34.381Z,12.91
2022-11-09T17:12:20.973Z,12.92
2022-11-09T17:15:08.782Z,12.98
2022-11-09T17:17:54.954Z,13.01
2022-11-09T17:20:47.407Z,13.02
2022-11-09T17:23:33.800Z,12.99
2022-11-09T17:26:21.732Z,12.99
2022-11-09T17:29:08.111Z,12.92
2022-11-09T17:31:54.984Z,12.97
2022-11-09T17:34:41.482Z,13.06
2022-11-09T17:37:29.797Z,13.22
2022-11-09T17:40:17.138Z,13.14
2022-11-09T17:43:03.923Z,13.12
2022-11-09T17:45:50.129Z,13.05
2022-11-09T17:48:38.130Z,13.03
2022-11-09T17:51:25.322Z,13.00
2022-11-09T17:54:14.609Z,12.94
2022-11-09T17:57:02.363Z,12.88
2022-11-09T17:59:49.021Z,12.90
2022-11-09T18:02:35.445Z,12.82
2022-11-09T18:05:22.245Z,12.72
2022-11-09T18:08:09.783Z,12.60
2022-11-09T18:10:58.713Z,12.52
2022-11-09T18:13:45.598Z,12.40
2022-11-09T18:16:32.301Z,12.32
2022-11-09T18:19:18.563Z,12.24
2022-11-09T18:22:08.719Z,12.26
2022-11-09T18:24:58.958Z,12.24
2022-11-09T18:27:47.575Z,12.22
2022-11-09T18:30:33.835Z,12.22
2022-11-09T18:33:20.849Z,12.26
2022-11-09T18:36:11.288Z,12.29
2022-11-09T18:38:57.528Z,12.31
2022-11-09T18:41:43.874Z,12.31
2022-11-09T18:44:32.198Z,12.37
2022-11-09T18:47:18.578Z,12.31
2022-11-09T18:50:05.563Z,12.32
2022-11-09T18:52:51.913Z,12.34
2022-11-09T18:55:38.228Z,12.32
2022-11-09T18:58:24.721Z,12.33
2022-11-09T19:01:13.066Z,12.32
2022-11-09T19:04:01.751Z,12.34
2022-11-09T19:06:48.236Z,12.40
2022-11-09T19:09:37.037Z,12.41
2022-11-09T19:12:24.202Z,12.35
2022-11-09T19:15:10.939Z,12.33
2022-11-09T19:17:58.728Z,12.26
2022-11-09T19:20:45.250Z,12.24
2022-11-09T19:23:34.596Z,12.25
2022-11-09T19:26:22.142Z,12.24
2022-11-09T19:29:09.953Z,12.22
2022-11-09T19:31:56.267Z,12.20
2022-11-09T19:34:46.066Z,12.19
2022-11-09T19:37:32.799Z,12.17
2022-11-09T19:40:20.650Z,12.15
2022-11-09T19:43:07.007Z,12.14
2022-11-09T19:45:53.543Z,12.09
2022-11-09T19:48:45.562Z,12.09
2022-11-09T19:51:34.677Z,12.16
2022-11-09T19:54:21.168Z,12.15
2022-11-09T19:57:07.609Z,12.20
2022-11-09T19:59:54.236Z,12.16
2022-11-09T20:02:40.674Z,12.08
2022-11-09T20:05:27.468Z,12.05
2022-11-09T20:08:15.412Z,11.97
2022-11-09T20:11:06.390Z,11.93
2022-11-09T20:13:51.751Z,11.87
2022-11-09T20:16:39.234Z,11.87
2022-11-09T20:19:25.825Z,11.98
2022-11-09T20:22:12.154Z,11.91
2022-11-09T20:25:00.126Z,11.83
2022-11-09T20:27:46.393Z,11.70
2022-11-09T20:30:32.904Z,11.64
2022-11-09T20:33:20.048Z,11.53
2022-11-09T20:36:07.271Z,11.42
2022-11-09T20:38:54.610Z,11.34
2022-11-09T20:41:42.249Z,11.28
2022-11-09T20:44:28.640Z,11.14
2022-11-09T20:47:25.758Z,11.09
2022-11-09T20:50:23.353Z,11.08
2022-11-09T20:53:10.167Z,11.15
2022-11-09T20:55:56.564Z,11.12
2022-11-09T20:58:44.399Z,11.04
2022-11-09T21:01:31.028Z,11.03
2022-11-09T21:04:17.527Z,11.11
2022-11-09T21:07:04.105Z,11.11
2022-11-09T21:09:50.472Z,11.22
2022-11-09T21:12:37.041Z,11.25
2022-11-09T21:15:24.596Z,11.29
2022-11-09T21:18:11.302Z,11.31
2022-11-09T21:20:57.901Z,11.23
2022-11-09T21:24:02.399Z,11.17
2022-11-09T21:27:06.428Z,11.10
2022-11-09T21:29:52.838Z,10.98
2022-11-09T21:32:41.162Z,10.85
2022-11-09T21:35:27.925Z,10.81
2022-11-09T21:38:14.203Z,10.77
2022-11-09T21:41:21.341Z,10.68
2022-11-09T21:44:09.023Z,10.62
2022-11-09T21:46:55.746Z,10.52
2022-11-09T21:49:43.553Z,10.46
2022-11-09T21:52:30.136Z,10.43
2022-11-09T21:55:16.574Z,10.37
2022-11-09T21:58:02.801Z,10.41
2022-11-09T22:00:49.363Z,10.42
2022-11-09T22:03:36.857Z,10.41
2022-11-09T22:06:25.544Z,10.39
2022-11-09T22:09:15.538Z,10.31
2022-11-09T22:12:19.829Z,10.32
2022-11-09T22:15:24.871Z,10.26
2022-11-09T22:18:32.329Z,10.20
2022-11-09T22:21:18.568Z,10.23
2022-11-09T22:24:07.493Z,10.29
2022-11-09T22:26:53.664Z,10.31
2022-11-09T22:29:40.277Z,10.37
2022-11-09T22:32:27.029Z,10.31
2022-11-09T22:35:13.605Z,10.23
2022-11-09T22:38:02.846Z,10.18
2022-11-09T22:40:50.825Z,10.11
2022-11-09T22:43:38.958Z,10.05
2022-11-09T22:46:25.482Z,9.95
2022-11-09T22:49:12.342Z,9.84
2022-11-09T22:51:58.443Z,9.73
2022-11-09T22:54:45.030Z,9.65
2022-11-09T22:57:33.021Z,9.62
2022-11-09T23:00:20.203Z,9.56
2022-11-09T23:03:06.569Z,9.58
2022-11-09T23:05:53.241Z,9.61
2022-11-09T23:08:39.838Z,9.57
2022-11-09T23:11:26.703Z,9.52
2022-11-09T23:14:14.335Z,9.52
2022-11-09T23:17:00.879Z,9.57
2022-11-09T23:19:46.368Z,9.59
2022-11-09T23:22:35.107Z,9.61
2022-11-09T23:25:39.547Z,9.61
2022-11-09T23:28:26.038Z,9.55
2022-11-09T23:31:15.853Z,9.40
2022-11-09T23:34:04.810Z,9.36
2022-11-09T23:36:55.162Z,9.33
2022-11-09T23:39:41.359Z,9.30
2022-11-09T23:42:27.742Z,9.30
2022-11-09T23:45:14.690Z,9.30
2022-11-09T23:48:03.034Z,9.25
2022-11-09T23:50:49.586Z,9.19
2022-11-09T23:53:37.052Z,9.13
2022-11-09T23:56:23.200Z,9.12
2022-11-09T23:59:09.698Z,9.24
